createdAt,value
2023-03-21T00:00:42.971Z,24.55
2023-03-21T00:03:09.467Z,20.38
2023-03-21T00:05:42.992Z,22.70
2023-03-21T00:08:09.656Z,23.70
2023-03-21T00:10:42.085Z,23.80
2023-03-21T00:13:15.322Z,24.50
2023-03-21T00:16:04.233Z,24.33
2023-03-21T00:18:32.009Z,20.50
2023-03-21T00:21:35.572Z,19.75
2023-03-21T00:23:49.640Z,18.88
2023-03-21T00:26:17.203Z,25.70
2023-03-21T00:28:44.020Z,26.45
2023-03-21T00:31:11.093Z,20.70
2023-03-21T00:33:39.522Z,21.90
2023-03-21T00:36:07.701Z,26.75
2023-03-21T00:38:34.996Z,20.55
2023-03-21T00:41:18.829Z,23.25
2023-03-21T00:43:51.998Z,27.08
2023-03-21T00:46:18.757Z,24.40
2023-03-21T00:48:46.039Z,17.15
2023-03-21T00:51:15.626Z,23.23
2023-03-21T00:53:42.843Z,26.23
2023-03-21T00:56:09.805Z,21.73
2023-03-21T00:58:36.469Z,26.00
2023-03-21T01:01:04.400Z,23.13
2023-03-21T01:03:31.008Z,19.65
2023-03-21T01:06:06.859Z,24.48
2023-03-21T01:08:50.438Z,23.30
2023-03-21T01:11:21.116Z,25.63
2023-03-21T01:13:54.886Z,23.83
2023-03-21T01:16:27.329Z,22.38
2023-03-21T01:18:53.990Z,23.33
2023-03-21T01:21:20.639Z,23.13
2023-03-21T01:23:47.956Z,23.05
2023-03-21T01:26:15.417Z,25.88
2023-03-21T01:28:43.329Z,24.67
2023-03-21T01:31:15.280Z,27.15
2023-03-21T01:33:41.937Z,27.92
2023-03-21T01:36:13.249Z,24.38
2023-03-21T01:38:41.415Z,19.13
2023-03-21T01:41:18.610Z,23.73
2023-03-21T01:43:46.075Z,22.30
2023-03-21T01:46:12.472Z,24.77
2023-03-21T01:48:42.172Z,25.02
2023-03-21T01:51:11.504Z,26.55
2023-03-21T01:53:39.214Z,23.13
2023-03-21T01:56:13.957Z,25.40
2023-03-21T01:58:42.148Z,24.00
2023-03-21T02:01:10.006Z,21.48
2023-03-21T02:03:38.497Z,23.65
2023-03-21T02:06:15.252Z,24.00
2023-03-21T02:08:41.903Z,23.17
2023-03-21T02:11:09.983Z,24.85
2023-03-21T02:13:36.391Z,23.52
2023-03-21T02:16:13.410Z,19.50
2023-03-21T02:18:39.798Z,23.83
2023-03-21T02:21:36.607Z,23.92
2023-03-21T02:24:26.322Z,24.70
2023-03-21T02:27:21.743Z,27.33
2023-03-21T02:30:29.621Z,19.48
2023-03-21T02:33:01.272Z,22.48
2023-03-21T02:35:54.534Z,24.77
2023-03-21T02:38:38.759Z,24.27
2023-03-21T02:41:17.997Z,27.98
2023-03-21T02:43:53.979Z,29.60
2023-03-21T02:46:42.884Z,24.77
2023-03-21T02:49:43.357Z,26.35
2023-03-21T02:52:28.259Z,22.90
2023-03-21T02:55:00.976Z,21.00
2023-03-21T02:57:40.053Z,25.05
2023-03-21T03:00:16.486Z,26.95
2023-03-21T03:02:43.567Z,22.90
2023-03-21T03:05:25.618Z,22.90
2023-03-21T03:08:36.207Z,24.23
2023-03-21T03:13:48.278Z,27.35
2023-03-21T03:16:39.005Z,22.92
2023-03-21T03:19:11.009Z,17.67
2023-03-21T03:21:44.053Z,26.45
2023-03-21T03:27:04.001Z,23.35
2023-03-21T03:29:34.081Z,25.10
2023-03-21T03:32:21.236Z,23.92
2023-03-21T03:34:51.615Z,25.02
2023-03-21T03:37:26.173Z,21.45
2023-03-21T03:40:27.780Z,24.00
2023-03-21T03:42:58.975Z,22.27
2023-03-21T03:45:35.578Z,23.45
2023-03-21T03:48:05.948Z,26.02
2023-03-21T03:50:44.757Z,21.40
2023-03-21T03:53:18.317Z,24.05
2023-03-21T03:55:45.988Z,24.45
2023-03-21T03:58:21.680Z,21.38
2023-03-21T04:00:51.917Z,21.98
2023-03-21T04:03:18.604Z,25.48
2023-03-21T04:05:47.731Z,20.05
2023-03-21T04:08:16.549Z,22.40
2023-03-21T04:10:43.849Z,27.25
2023-03-21T04:13:10.722Z,20.75
2023-03-21T04:15:37.467Z,23.48
2023-03-21T04:18:03.986Z,22.52
2023-03-21T04:20:37.048Z,24.33
2023-03-21T04:23:04.343Z,22.88
2023-03-21T04:25:34.691Z,24.90
2023-03-21T04:28:01.359Z,23.25
2023-03-21T04:30:27.684Z,21.98
2023-03-21T04:32:56.636Z,27.65
2023-03-21T04:35:24.336Z,22.30
2023-03-21T04:37:50.742Z,21.52
2023-03-21T04:40:19.977Z,20.92
2023-03-21T04:42:47.796Z,25.70
2023-03-21T04:45:15.765Z,23.05
2023-03-21T04:47:42.640Z,22.23
2023-03-21T04:50:10.805Z,23.95
2023-03-21T04:52:37.311Z,22.90
2023-03-21T04:55:04.089Z,25.40
2023-03-21T04:57:30.976Z,25.55
2023-03-21T04:59:57.335Z,22.85
2023-03-21T05:02:23.693Z,22.48
2023-03-21T05:04:50.144Z,24.40
2023-03-21T05:07:16.526Z,26.38
2023-03-21T05:09:42.906Z,24.55
2023-03-21T05:12:09.225Z,26.15
2023-03-21T05:14:35.589Z,25.38
2023-03-21T05:17:05.257Z,23.85
2023-03-21T05:19:35.832Z,23.02
2023-03-21T05:22:05.479Z,23.35
2023-03-21T05:24:33.175Z,22.83
2023-03-21T05:27:01.979Z,20.55
2023-03-21T05:29:31.413Z,21.35
2023-03-21T05:31:59.301Z,23.55
2023-03-21T05:34:27.008Z,25.90
2023-03-21T05:36:53.948Z,25.70
2023-03-21T05:39:21.030Z,22.95
2023-03-21T05:41:47.573Z,24.00
2023-03-21T05:44:13.910Z,23.55
2023-03-21T05:46:40.248Z,25.05
2023-03-21T05:49:06.575Z,24.52
2023-03-21T05:51:32.957Z,27.73
2023-03-21T05:53:59.303Z,23.48
2023-03-21T05:56:25.772Z,24.30
2023-03-21T05:58:52.117Z,24.83
2023-03-21T06:01:18.835Z,24.90
2023-03-21T06:03:45.461Z,27.67
2023-03-21T06:06:11.806Z,25.15
2023-03-21T06:08:38.188Z,25.27
2023-03-21T06:11:23.263Z,23.67
2023-03-21T06:13:49.828Z,23.75
2023-03-21T06:16:16.364Z,29.48
2023-03-21T06:18:42.761Z,25.38
2023-03-21T06:21:09.114Z,23.77
2023-03-21T06:23:36.621Z,22.13
2023-03-21T06:26:04.060Z,23.95
2023-03-21T06:28:31.948Z,28.05
2023-03-21T06:30:58.533Z,23.67
2023-03-21T06:33:25.872Z,23.23
2023-03-21T06:35:57.438Z,24.45
2023-03-21T06:38:25.151Z,22.10
2023-03-21T06:40:51.963Z,23.95
2023-03-21T06:43:18.538Z,22.80
2023-03-21T06:45:45.272Z,23.33
2023-03-21T06:48:12.330Z,24.85
2023-03-21T06:50:38.932Z,24.92
2023-03-21T06:53:05.349Z,20.83
2023-03-21T06:55:31.819Z,22.25
2023-03-21T06:57:59.229Z,25.63
2023-03-21T07:00:25.970Z,23.38
2023-03-21T07:02:53.733Z,28.08
2023-03-21T07:05:20.391Z,25.00
2023-03-21T07:07:46.835Z,28.42
2023-03-21T07:10:13.264Z,24.83
2023-03-21T07:12:39.642Z,28.85
2023-03-21T07:15:07.390Z,24.83
2023-03-21T07:17:33.814Z,25.23
2023-03-21T07:20:00.240Z,21.80
2023-03-21T07:22:26.709Z,25.60
2023-03-21T07:25:04.094Z,28.52
2023-03-21T07:27:32.048Z,27.40
2023-03-21T07:29:58.500Z,30.30
2023-03-21T07:32:29.712Z,26.60
2023-03-21T07:34:56.223Z,27.20
2023-03-21T07:37:23.899Z,26.05
2023-03-21T07:39:51.336Z,30.52
2023-03-21T07:42:18.081Z,25.15
2023-03-21T07:44:45.884Z,33.70
2023-03-21T07:47:12.370Z,28.25
2023-03-21T07:49:38.820Z,31.05
2023-03-21T07:52:06.668Z,25.42
2023-03-21T07:54:33.376Z,30.23
2023-03-21T07:56:59.992Z,34.75
2023-03-21T07:59:26.628Z,29.98
2023-03-21T08:01:53.051Z,31.00
2023-03-21T08:04:19.826Z,34.22
2023-03-21T08:06:46.245Z,35.53
2023-03-21T08:09:19.599Z,33.10
2023-03-21T08:11:45.996Z,32.20
2023-03-21T08:14:12.548Z,34.08
2023-03-21T08:16:38.995Z,32.65
2023-03-21T08:19:05.823Z,34.33
2023-03-21T08:21:32.185Z,30.35
2023-03-21T08:23:58.684Z,26.98
2023-03-21T08:26:26.408Z,35.25
2023-03-21T08:28:52.914Z,32.70
2023-03-21T08:31:21.685Z,30.40
2023-03-21T08:33:51.032Z,28.45
2023-03-21T08:36:17.479Z,28.38
2023-03-21T08:38:45.960Z,28.95
2023-03-21T08:41:12.528Z,29.42
2023-03-21T08:43:38.908Z,26.70
2023-03-21T08:46:05.801Z,29.05
2023-03-21T08:48:32.605Z,23.70
2023-03-21T08:51:01.834Z,26.95
2023-03-21T08:53:28.249Z,23.05
2023-03-21T08:55:54.733Z,25.20
2023-03-21T08:58:21.184Z,23.05
2023-03-21T09:00:48.241Z,27.05
2023-03-21T09:03:14.619Z,23.45
2023-03-21T09:05:41.324Z,28.02
2023-03-21T09:08:07.708Z,23.77
2023-03-21T09:10:34.179Z,22.52
2023-03-21T09:13:00.658Z,27.10
2023-03-21T09:15:29.720Z,25.00
2023-03-21T09:17:58.294Z,21.42
2023-03-21T09:20:30.505Z,26.48
2023-03-21T09:22:58.238Z,24.70
2023-03-21T09:25:24.964Z,25.15
2023-03-21T09:27:51.554Z,30.20
2023-03-21T09:30:22.292Z,29.48
2023-03-21T09:32:50.343Z,27.57
2023-03-21T09:35:18.764Z,27.88
2023-03-21T09:37:47.212Z,27.55
2023-03-21T09:40:23.432Z,21.23
2023-03-21T09:43:15.455Z,24.00
2023-03-21T09:45:58.634Z,24.67
2023-03-21T09:48:34.963Z,26.45
2023-03-21T09:51:05.220Z,27.52
2023-03-21T09:53:40.022Z,23.55
2023-03-21T09:56:13.200Z,29.60
2023-03-21T09:58:46.145Z,26.80
2023-03-21T10:01:41.879Z,26.00
2023-03-21T10:04:12.929Z,24.02
2023-03-21T10:06:42.990Z,25.38
2023-03-21T10:09:25.732Z,25.67
2023-03-21T10:12:07.304Z,25.77
2023-03-21T10:14:48.347Z,27.05
2023-03-21T10:17:25.600Z,22.48
2023-03-21T10:20:21.476Z,27.90
2023-03-21T10:22:50.429Z,25.35
2023-03-21T10:25:33.102Z,26.13
2023-03-21T10:28:00.745Z,24.42
2023-03-21T10:30:40.527Z,24.75
2023-03-21T10:33:11.921Z,24.25
2023-03-21T10:35:44.833Z,25.60
2023-03-21T10:38:17.895Z,27.92
2023-03-21T10:43:16.962Z,23.55
2023-03-21T10:48:17.341Z,22.60
2023-03-21T10:50:47.964Z,19.73
2023-03-21T10:53:27.554Z,23.95
2023-03-21T10:55:57.558Z,28.23
2023-03-21T10:58:33.298Z,22.40
2023-03-21T11:01:04.861Z,22.38
2023-03-21T11:03:36.796Z,24.90
2023-03-21T11:06:11.650Z,20.95
2023-03-21T11:08:47.259Z,23.88
2023-03-21T11:11:21.509Z,20.35
2023-03-21T11:13:56.852Z,23.15
2023-03-21T11:16:30.566Z,24.45
2023-03-21T11:19:02.390Z,22.17
2023-03-21T11:21:36.621Z,24.88
2023-03-21T11:24:04.806Z,23.38
2023-03-21T11:26:37.545Z,22.67
2023-03-21T11:29:40.590Z,25.42
2023-03-21T11:32:13.489Z,23.80
2023-03-21T11:34:53.343Z,20.52
2023-03-21T11:37:37.657Z,20.55
2023-03-21T11:40:18.189Z,26.33
2023-03-21T11:42:48.111Z,24.15
2023-03-21T11:45:18.452Z,25.52
2023-03-21T11:47:46.441Z,31.17
2023-03-21T11:50:35.143Z,26.50
2023-03-21T11:53:38.290Z,22.45
2023-03-21T11:56:26.521Z,22.52
2023-03-21T11:59:04.960Z,20.52
2023-03-21T12:01:35.451Z,22.08
2023-03-21T12:04:01.879Z,23.42
2023-03-21T12:06:37.529Z,22.83
2023-03-21T12:09:25.380Z,20.35
2023-03-21T12:12:01.139Z,24.05
2023-03-21T12:14:30.380Z,26.48
2023-03-21T12:17:09.801Z,22.85
2023-03-21T12:19:51.454Z,23.98
2023-03-21T12:22:43.863Z,24.60
2023-03-21T12:25:25.003Z,24.50
2023-03-21T12:28:06.600Z,21.50
2023-03-21T12:30:47.472Z,24.65
2023-03-21T12:33:44.108Z,25.15
2023-03-21T12:36:25.540Z,24.42
2023-03-21T12:39:04.336Z,19.63
2023-03-21T12:41:55.767Z,23.05
2023-03-21T12:44:26.304Z,24.08
2023-03-21T12:47:02.197Z,23.08
2023-03-21T12:50:15.526Z,25.20
2023-03-21T12:52:45.026Z,27.10
2023-03-21T12:55:21.898Z,21.48
2023-03-21T12:58:14.373Z,24.02
2023-03-21T13:00:47.529Z,25.65
2023-03-21T13:03:13.929Z,22.63
2023-03-21T13:05:48.605Z,23.20
2023-03-21T13:08:24.678Z,19.80
2023-03-21T13:10:51.077Z,18.17
2023-03-21T13:13:31.874Z,16.38
2023-03-21T13:16:17.860Z,17.90
2023-03-21T13:19:00.756Z,14.00
2023-03-21T13:21:52.070Z,14.85
2023-03-21T13:24:33.867Z,18.40
2023-03-21T13:27:04.086Z,20.00
2023-03-21T13:29:50.368Z,16.27
2023-03-21T13:32:30.884Z,17.33
2023-03-21T13:35:00.299Z,17.98
2023-03-21T13:37:34.834Z,19.20
2023-03-21T13:40:12.750Z,17.25
2023-03-21T13:42:51.011Z,17.25
2023-03-21T13:45:45.174Z,18.58
2023-03-21T13:48:28.466Z,17.13
2023-03-21T13:53:38.925Z,12.32
2023-03-21T13:56:16.013Z,17.63
2023-03-21T13:58:48.249Z,16.98
2023-03-21T14:01:30.599Z,13.55
2023-03-21T14:04:23.988Z,8.00
2023-03-21T14:06:59.191Z,11.95
2023-03-21T14:09:36.054Z,13.75
2023-03-21T14:12:07.826Z,15.13
2023-03-21T14:14:40.367Z,13.43
2023-03-21T14:17:23.861Z,12.80
2023-03-21T14:20:16.209Z,16.48
2023-03-21T14:22:42.767Z,11.85
2023-03-21T14:25:14.686Z,10.75
2023-03-21T14:27:55.214Z,12.93
2023-03-21T14:30:26.090Z,12.90
2023-03-21T14:33:03.363Z,12.20
2023-03-21T14:35:34.074Z,12.35
2023-03-21T14:38:07.205Z,11.80
2023-03-21T14:43:05.112Z,13.25
2023-03-21T14:48:35.896Z,12.85
2023-03-21T14:51:05.926Z,12.27
2023-03-21T14:53:37.662Z,10.50
2023-03-21T14:56:14.792Z,14.82
2023-03-21T14:58:44.447Z,12.25
2023-03-21T15:01:21.311Z,10.73
2023-03-21T15:03:51.281Z,9.52
2023-03-21T15:06:17.819Z,11.23
2023-03-21T15:08:55.776Z,10.27
2023-03-21T15:11:34.125Z,10.75
2023-03-21T15:14:04.795Z,12.23
2023-03-21T15:16:31.897Z,13.48
2023-03-21T15:18:59.722Z,10.25
2023-03-21T15:21:38.411Z,10.15
2023-03-21T15:24:33.907Z,10.63
2023-03-21T15:27:03.873Z,11.82
2023-03-21T15:29:31.289Z,11.38
2023-03-21T15:31:59.072Z,9.00
2023-03-21T15:34:29.306Z,15.45
2023-03-21T15:37:07.726Z,13.63
2023-03-21T15:39:36.287Z,11.63
2023-03-21T15:42:06.197Z,8.80
2023-03-21T15:44:35.028Z,12.18
2023-03-21T15:47:01.953Z,8.77
2023-03-21T15:49:33.831Z,8.75
2023-03-21T15:52:06.588Z,10.10
2023-03-21T15:54:44.425Z,12.63
2023-03-21T15:57:25.888Z,11.80
2023-03-21T16:00:35.864Z,8.07
2023-03-21T16:03:26.293Z,8.45
2023-03-21T16:06:12.617Z,8.15
2023-03-21T16:08:45.869Z,8.43
2023-03-21T16:11:24.856Z,7.90
2023-03-21T16:13:52.993Z,6.28
2023-03-21T16:16:22.317Z,7.30
2023-03-21T16:18:49.179Z,6.25
2023-03-21T16:21:18.344Z,7.07
2023-03-21T16:23:45.882Z,5.88
2023-03-21T16:26:16.520Z,7.45
2023-03-21T16:28:44.254Z,7.20
2023-03-21T16:31:21.105Z,10.25
2023-03-21T16:33:48.798Z,7.82
2023-03-21T16:36:25.613Z,6.20
2023-03-21T16:38:53.980Z,6.13
2023-03-21T16:41:22.282Z,6.90
2023-03-21T16:43:49.075Z,8.60
2023-03-21T16:46:24.319Z,10.23
2023-03-21T16:48:53.779Z,8.52
2023-03-21T16:51:34.898Z,8.13
2023-03-21T16:54:02.401Z,6.68
2023-03-21T16:56:50.396Z,6.43
2023-03-21T16:59:17.295Z,7.40
2023-03-21T17:01:46.090Z,6.90
2023-03-21T17:04:13.135Z,6.65
2023-03-21T17:06:44.682Z,10.05
2023-03-21T17:09:13.507Z,6.72
2023-03-21T17:11:41.520Z,6.97
2023-03-21T17:14:10.089Z,6.50
2023-03-21T17:16:37.341Z,7.05
2023-03-21T17:19:11.815Z,7.03
2023-03-21T17:21:38.226Z,6.45
2023-03-21T17:24:04.779Z,7.65
2023-03-21T17:26:31.161Z,6.22
2023-03-21T17:28:57.771Z,8.10
2023-03-21T17:31:26.544Z,7.15
2023-03-21T17:33:53.023Z,7.65
2023-03-21T17:36:24.655Z,7.85
2023-03-21T17:38:52.758Z,6.18
2023-03-21T17:41:20.480Z,8.60
2023-03-21T17:43:47.464Z,5.63
2023-03-21T17:46:16.662Z,8.70
2023-03-21T17:48:44.458Z,12.25
2023-03-21T17:51:14.692Z,9.13
2023-03-21T17:53:45.880Z,7.50
2023-03-21T17:56:20.114Z,10.98
2023-03-21T17:58:47.167Z,8.55
2023-03-21T18:01:14.130Z,7.32
2023-03-21T18:03:41.082Z,7.55
2023-03-21T18:06:19.550Z,8.63
2023-03-21T18:08:49.793Z,7.60
2023-03-21T18:11:16.912Z,8.65
2023-03-21T18:13:47.504Z,7.38
2023-03-21T18:16:22.624Z,6.35
2023-03-21T18:18:50.827Z,7.13
2023-03-21T18:21:20.251Z,8.10
2023-03-21T18:23:47.270Z,7.60
2023-03-21T18:26:17.638Z,7.95
2023-03-21T18:28:44.172Z,7.45
2023-03-21T18:31:19.249Z,9.00
2023-03-21T18:33:48.095Z,7.63
2023-03-21T18:36:24.538Z,7.18
2023-03-21T18:38:51.996Z,6.65
2023-03-21T18:41:19.605Z,6.13
2023-03-21T18:44:05.541Z,9.40
2023-03-21T18:46:33.008Z,6.20
2023-03-21T18:49:19.969Z,6.80
2023-03-21T18:51:46.963Z,6.75
2023-03-21T18:54:13.556Z,10.80
2023-03-21T18:59:27.036Z,7.78
2023-03-21T19:01:53.691Z,8.05
2023-03-21T19:04:25.598Z,7.93
2023-03-21T19:06:58.315Z,8.95
2023-03-21T19:09:29.652Z,10.77
2023-03-21T19:11:58.326Z,7.45
2023-03-21T19:14:24.723Z,9.85
2023-03-21T19:19:38.625Z,7.82
2023-03-21T19:22:05.024Z,7.72
2023-03-21T19:24:31.401Z,10.45
2023-03-21T19:26:57.910Z,8.60
2023-03-21T19:29:25.618Z,9.30
2023-03-21T19:31:52.245Z,12.27
2023-03-21T19:34:19.404Z,10.88
2023-03-21T19:36:51.433Z,10.43
2023-03-21T19:39:21.860Z,11.20
2023-03-21T19:41:48.557Z,8.20
2023-03-21T19:44:14.883Z,12.82
2023-03-21T19:46:41.265Z,10.57
2023-03-21T19:49:07.589Z,9.13
2023-03-21T19:51:34.294Z,10.98
2023-03-21T19:54:04.487Z,10.05
2023-03-21T19:56:31.918Z,11.05
2023-03-21T19:58:58.915Z,10.55
2023-03-21T20:01:26.008Z,11.88
2023-03-21T20:03:52.592Z,10.45
2023-03-21T20:06:22.096Z,12.45
2023-03-21T20:11:34.872Z,11.88
2023-03-21T20:14:03.123Z,10.88
2023-03-21T20:16:35.001Z,10.73
2023-03-21T20:19:03.419Z,10.48
2023-03-21T20:21:36.630Z,11.05
2023-03-21T20:24:11.328Z,12.57
2023-03-21T20:26:37.971Z,10.75
2023-03-21T20:29:46.995Z,11.85
2023-03-21T20:31:53.013Z,12.43
2023-03-21T20:34:19.319Z,10.48
2023-03-21T20:36:45.801Z,9.00
2023-03-21T20:39:12.213Z,10.15
2023-03-21T20:41:39.679Z,13.23
2023-03-21T20:44:41.765Z,8.95
2023-03-21T20:49:25.002Z,8.85
2023-03-21T20:54:38.535Z,14.55
2023-03-21T20:57:05.236Z,11.68
2023-03-21T20:59:37.804Z,9.23
2023-03-21T21:02:05.370Z,10.30
2023-03-21T21:04:49.742Z,13.45
2023-03-21T21:07:22.950Z,10.45
2023-03-21T21:09:50.124Z,9.18
2023-03-21T21:12:19.383Z,12.85
2023-03-21T21:14:47.772Z,8.85
2023-03-21T21:17:31.181Z,10.60
2023-03-21T21:20:10.602Z,12.27
2023-03-21T21:22:39.048Z,14.48
2023-03-21T21:25:06.590Z,13.52
2023-03-21T21:27:33.053Z,12.45
2023-03-21T21:29:59.940Z,10.77
2023-03-21T21:32:26.512Z,11.38
2023-03-21T21:34:53.300Z,9.75
2023-03-21T21:37:20.014Z,11.57
2023-03-21T21:39:46.700Z,14.57
2023-03-21T21:42:13.227Z,11.90
2023-03-21T21:44:44.214Z,10.77
2023-03-21T21:47:12.263Z,12.05
2023-03-21T21:49:39.183Z,11.98
2023-03-21T21:52:05.680Z,14.32
2023-03-21T21:54:34.229Z,9.77
2023-03-21T21:57:01.275Z,15.02
2023-03-21T21:59:28.016Z,13.45
2023-03-21T22:01:54.738Z,11.60
2023-03-21T22:04:27.714Z,16.13
2023-03-21T22:09:23.707Z,12.43
2023-03-21T22:11:50.363Z,13.50
2023-03-21T22:14:16.948Z,11.20
2023-03-21T22:16:44.070Z,10.93
2023-03-21T22:19:10.680Z,11.57
2023-03-21T22:21:37.156Z,10.27
2023-03-21T22:24:03.984Z,12.23
2023-03-21T22:26:30.644Z,16.25
2023-03-21T22:28:57.992Z,10.70
2023-03-21T22:31:25.955Z,12.90
2023-03-21T22:33:52.633Z,13.50
2023-03-21T22:36:20.112Z,15.00
2023-03-21T22:38:47.807Z,10.45
2023-03-21T22:41:14.549Z,9.68
2023-03-21T22:43:41.127Z,15.55
2023-03-21T22:46:07.635Z,11.95
2023-03-21T22:48:34.769Z,13.05
2023-03-21T22:51:01.428Z,13.73
2023-03-21T22:53:28.463Z,16.52
2023-03-21T22:55:58.337Z,12.70
2023-03-21T22:58:24.886Z,12.45
2023-03-21T23:00:51.887Z,12.05
2023-03-21T23:03:18.759Z,12.80
2023-03-21T23:05:45.700Z,10.75
2023-03-21T23:08:13.024Z,14.40
2023-03-21T23:10:41.443Z,11.82
2023-03-21T23:13:08.273Z,15.25
2023-03-21T23:15:34.795Z,12.25
2023-03-21T23:18:01.418Z,13.40
2023-03-21T23:20:28.044Z,10.20
2023-03-21T23:22:54.766Z,14.57
2023-03-21T23:25:21.705Z,12.57
2023-03-21T23:27:48.428Z,12.70
2023-03-21T23:30:15.260Z,9.82
2023-03-21T23:32:42.638Z,12.65
2023-03-21T23:35:10.201Z,16.50
2023-03-21T23:37:36.986Z,10.45
2023-03-21T23:40:06.220Z,11.93
2023-03-21T23:42:34.292Z,11.90
2023-03-21T23:45:00.986Z,12.43
2023-03-21T23:47:27.819Z,13.70
2023-03-21T23:49:54.463Z,11.63
2023-03-21T23:52:21.447Z,10.35
2023-03-21T23:54:48.125Z,11.00
2023-03-21T23:57:14.700Z,12.88
2023-03-21T23:59:41.191Z,13.52
